Nearby METAR Reports

 

KBVO - Bartlesville, Oklahoma, USA
Distance from station: WNW 10mi, 16km
Updated: Thu, 09-Apr-2020 4:53pm CDT
Clear
Clear
 Wind from NNE
Wind: NNE 14 mph , 22 km/h, Gust: 21 mph , 33 km/h
Temperature: 64°F , 18°C
Dew Point: 30°F , -1°C
Humidity: 28%
Barometer: 30.05 inHg , 1017.6 hPa
Clouds: Clear
Visibility: 10 miles , 16 km
2020/04/09 21:53 KBVO 092153Z 02012G18KT 10SM CLR 18/M01 A3005 RMK AO2 SLP170 T01781011
KCFV - Coffeyville, Kansas, USA
Distance from station: NNE 31mi, 49km
Updated: Thu, 09-Apr-2020 4:52pm CDT
Clear
Clear
 Wind from N
Wind: N 9 mph , 15 km/h, Gust: 21 mph , 33 km/h
Temperature: 64°F , 18°C
Dew Point: 28°F , -2°C
Humidity: 26%
Barometer: 30.03 inHg , 1016.9 hPa
Clouds: Clear
Visibility: 10 miles , 16 km
2020/04/09 21:52 KCFV 092152Z AUTO 36008G18KT 10SM CLR 18/M02 A3003 RMK AO2 SLP168 T01781022
 
KIDP - Independence, Kansas, USA
Distance from station: N 32mi, 52km
Updated: Thu, 09-Apr-2020 4:35pm CDT
Clear
Clear
 Wind from NNW
Wind: NNW 9 mph , 15 km/h
Temperature: 64°F , 18°C
Dew Point: 30°F , -1°C
Humidity: 28%
Barometer: 30.05 inHg , 1017.6 hPa
Clouds: Clear
Visibility: 10 miles , 16 km
2020/04/09 21:35 KIDP 092135Z AUTO 33008KT 10SM CLR 18/M01 A3005 RMK AO2 T01781013
KGCM - Claremore, Oklahoma, USA
Distance from station: SE 35mi, 56km
Updated: Thu, 09-Apr-2020 4:55pm CDT
Clear
Clear
 Wind from NE
Wind: NE 13 mph , 20 km/h, Gust: 17 mph , 28 km/h
Temperature: 64°F , 18°C
Dew Point: 12°F , -11°C
Humidity: 13%
Barometer: 30.03 inHg , 1016.9 hPa
Clouds: Clear
Visibility: 10 miles , 16 km
2020/04/09 21:55 KGCM 092155Z AUTO 04011G15KT 10SM CLR 18/M11 A3003 RMK AO2
 
KTUL - Tulsa, Oklahoma, USA
Distance from station: S 35mi, 56km
Updated: Thu, 09-Apr-2020 4:53pm CDT
Clear
Clear
 Wind from NNE
Wind: NNE 12 mph , 19 km/h, Gust: 24 mph , 39 km/h
Temperature: 66°F , 19°C
Dew Point: 32°F , 0°C
Humidity: 28%
Barometer: 30.01 inHg , 1016.3 hPa
Clouds: Clear
Visibility: 10 miles , 16 km
2020/04/09 21:53 KTUL 092153Z 03010G21KT 10SM CLR 19/00 A3001 RMK AO2 SLP158 T01940000
KRVS - Tulsa, Oklahoma, USA
Distance from station: S 46mi, 74km
Updated: Thu, 09-Apr-2020 4:53pm CDT
Clear
Clear
 Wind from NNE
Wind: NNE 9 mph , 15 km/h, Gust: 20 mph , 31 km/h
Temperature: 68°F , 20°C
Dew Point: 30°F , -1°C
Humidity: 24%
Barometer: 30.02 inHg , 1016.6 hPa
Clouds: Clear
Visibility: 10 miles , 16 km
2020/04/09 21:53 KRVS 092153Z 02008G17KT 10SM CLR 20/M01 A3002 RMK AO2 SLP171 T02001006
 
KPPF - Parsons, Kansas, USA
Distance from station: NNE 48mi, 76km
Updated: Thu, 09-Apr-2020 4:52pm CDT
Clear
Clear
 Wind from N
Wind: N 12 mph , 19 km/h
Temperature: 64°F , 18°C
Dew Point: 28°F , -2°C
Humidity: 26%
Barometer: 30.05 inHg , 1017.6 hPa
Clouds: Clear
Visibility: 10 miles , 16 km
2020/04/09 21:52 KPPF 092152Z AUTO 01010KT 10SM CLR 18/M02 A3005 RMK AO2 SLP171 T01831017
KGMJ - Grove, Oklahoma, USA
Distance from station: E 63mi, 101km
Updated: Thu, 09-Apr-2020 4:55pm CDT
Clear
Clear
 Wind from NNW
Wind: NNW 9 mph , 15 km/h
Temperature: 63°F , 17°C
Dew Point: 30°F , -1°C
Humidity: 30%
Barometer: 30.04 inHg , 1017.3 hPa
Clouds: Clear
Visibility: 10 miles , 16 km
2020/04/09 21:55 KGMJ 092155Z AUTO 34008KT 320V020 10SM CLR 17/M01 A3004 RMK AO2
 
KPNC - Ponca City, Oklahoma, USA
Distance from station: W 69mi, 111km
Updated: Thu, 09-Apr-2020 4:53pm CDT
Clear
Clear
 Wind from N
Wind: N 16 mph , 26 km/h
Temperature: 66°F , 19°C
Dew Point: 30°F , -1°C
Humidity: 26%
Barometer: 30.05 inHg , 1017.6 hPa
Clouds: Clear
Visibility: 10 miles , 16 km
2020/04/09 21:53 KPNC 092153Z AUTO 01014KT 10SM CLR 19/M01 A3005 RMK AO2 SLP172 T01891011
KCNU - Chanute, Kansas, USA
Distance from station: NNE 69mi, 112km
Updated: Thu, 09-Apr-2020 4:52pm CDT
Clear
Clear
 Wind from NW
Wind: NW 16 mph , 26 km/h
Temperature: 64°F , 18°C
Dew Point: 28°F , -2°C
Humidity: 26%
Barometer: 30.04 inHg , 1017.3 hPa
Clouds: Clear
Visibility: 10 miles , 16 km
2020/04/09 21:52 KCNU 092152Z AUTO 32014KT 10SM CLR 18/M02 A3004 RMK AO2 SLP168 T01781022